sensor_id;sensor_type;location;lat;lon;timestamp;pressure;altitude;pressure_sealevel;temperature;humidity
9525;BME280;15940;48.734;9.112;2023-01-30T00:01:40;97180.84;;;-1.95;80.54
9525;BME280;15940;48.734;9.112;2023-01-30T00:04:07;97180.06;;;-1.96;80.88
9525;BME280;15940;48.734;9.112;2023-01-30T00:06:37;97167.88;;;-1.90;81.17
9525;BME280;15940;48.734;9.112;2023-01-30T00:09:05;97165.44;;;-1.63;80.21
9525;BME280;15940;48.734;9.112;2023-01-30T00:11:32;97163.53;;;-1.59;80.00
9525;BME280;15940;48.734;9.112;2023-01-30T00:13:59;97156.34;;;-1.65;80.32
9525;BME280;15940;48.734;9.112;2023-01-30T00:16:26;97148.00;;;-1.64;80.35
9525;BME280;15940;48.734;9.112;2023-01-30T00:18:53;97129.53;;;-1.82;79.25
9525;BME280;15940;48.734;9.112;2023-01-30T00:21:20;97125.22;;;-2.20;80.60
9525;BME280;15940;48.734;9.112;2023-01-30T00:23:46;97119.66;;;-2.47;80.64
9525;BME280;15940;48.734;9.112;2023-01-30T00:26:15;97122.41;;;-2.69;82.08
9525;BME280;15940;48.734;9.112;2023-01-30T00:28:42;97120.97;;;-2.91;82.49
9525;BME280;15940;48.734;9.112;2023-01-30T00:31:09;97131.13;;;-2.68;84.53
9525;BME280;15940;48.734;9.112;2023-01-30T00:33:37;97120.50;;;-2.61;83.83
9525;BME280;15940;48.734;9.112;2023-01-30T00:36:05;97128.03;;;-2.56;82.94
9525;BME280;15940;48.734;9.112;2023-01-30T00:38:32;97126.50;;;-2.46;84.37
9525;BME280;15940;48.734;9.112;2023-01-30T00:40:59;97106.59;;;-2.10;82.41
9525;BME280;15940;48.734;9.112;2023-01-30T00:43:28;97103.31;;;-2.32;81.09
9525;BME280;15940;48.734;9.112;2023-01-30T00:46:21;97093.53;;;-2.45;80.77
9525;BME280;15940;48.734;9.112;2023-01-30T00:49:07;97109.56;;;-2.70;82.21
9525;BME280;15940;48.734;9.112;2023-01-30T00:51:34;97107.31;;;-2.86;84.21
9525;BME280;15940;48.734;9.112;2023-01-30T00:54:00;97109.56;;;-2.74;83.59
9525;BME280;15940;48.734;9.112;2023-01-30T00:56:27;97126.22;;;-2.70;82.89
9525;BME280;15940;48.734;9.112;2023-01-30T00:58:56;97135.66;;;-2.69;83.62
9525;BME280;15940;48.734;9.112;2023-01-30T01:01:22;97139.09;;;-2.65;84.12
9525;BME280;15940;48.734;9.112;2023-01-30T01:03:49;97145.47;;;-2.55;83.67
9525;BME280;15940;48.734;9.112;2023-01-30T01:06:16;97171.66;;;-2.75;81.94
9525;BME280;15940;48.734;9.112;2023-01-30T01:08:44;97174.00;;;-2.98;82.32
9525;BME280;15940;48.734;9.112;2023-01-30T01:11:11;97180.09;;;-3.12;83.57
9525;BME280;15940;48.734;9.112;2023-01-30T01:13:50;97186.50;;;-3.02;84.62
9525;BME280;15940;48.734;9.112;2023-01-30T01:16:19;97192.53;;;-2.88;84.94
9525;BME280;15940;48.734;9.112;2023-01-30T01:18:46;97186.09;;;-2.87;85.00
9525;BME280;15940;48.734;9.112;2023-01-30T01:21:13;97181.88;;;-2.66;84.33
9525;BME280;15940;48.734;9.112;2023-01-30T01:23:40;97190.56;;;-2.59;82.33
9525;BME280;15940;48.734;9.112;2023-01-30T01:26:07;97180.03;;;-2.80;81.76
9525;BME280;15940;48.734;9.112;2023-01-30T01:28:35;97200.47;;;-2.95;82.28
9525;BME280;15940;48.734;9.112;2023-01-30T01:31:08;97206.19;;;-3.10;83.04
9525;BME280;15940;48.734;9.112;2023-01-30T01:33:36;97204.66;;;-3.04;84.89
9525;BME280;15940;48.734;9.112;2023-01-30T01:36:05;97215.28;;;-3.01;83.95
9525;BME280;15940;48.734;9.112;2023-01-30T01:38:32;97204.66;;;-2.90;85.22
9525;BME280;15940;48.734;9.112;2023-01-30T01:40:59;97208.09;;;-3.18;82.63
9525;BME280;15940;48.734;9.112;2023-01-30T01:43:33;97203.53;;;-3.25;82.95
9525;BME280;15940;48.734;9.112;2023-01-30T01:46:07;97191.00;;;-2.78;84.74
9525;BME280;15940;48.734;9.112;2023-01-30T01:48:39;97181.81;;;-2.45;82.67
9525;BME280;15940;48.734;9.112;2023-01-30T01:51:11;97182.09;;;-2.21;82.72
9525;BME280;15940;48.734;9.112;2023-01-30T01:53:43;97179.78;;;-2.12;81.47
9525;BME280;15940;48.734;9.112;2023-01-30T01:56:14;97182.72;;;-1.96;81.67
9525;BME280;15940;48.734;9.112;2023-01-30T01:58:48;97185.91;;;-2.30;80.03
9525;BME280;15940;48.734;9.112;2023-01-30T02:01:17;97189.78;;;-2.45;81.14
9525;BME280;15940;48.734;9.112;2023-01-30T02:03:51;97172.13;;;-1.99;81.80
9525;BME280;15940;48.734;9.112;2023-01-30T02:06:19;97186.78;;;-1.81;80.73
9525;BME280;15940;48.734;9.112;2023-01-30T02:08:51;97194.97;;;-1.54;79.79
9525;BME280;15940;48.734;9.112;2023-01-30T02:11:24;97185.22;;;-1.67;77.77
9525;BME280;15940;48.734;9.112;2023-01-30T02:13:56;97193.69;;;-1.87;79.27
9525;BME280;15940;48.734;9.112;2023-01-30T02:16:23;97203.19;;;-1.93;80.27
9525;BME280;15940;48.734;9.112;2023-01-30T02:18:52;97194.78;;;-1.84;79.29
9525;BME280;15940;48.734;9.112;2023-01-30T02:22:05;97186.47;;;-1.90;80.11
9525;BME280;15940;48.734;9.112;2023-01-30T02:25:00;97186.78;;;-1.77;79.76
9525;BME280;15940;48.734;9.112;2023-01-30T02:28:05;97168.53;;;-1.68;77.91
9525;BME280;15940;48.734;9.112;2023-01-30T02:31:13;97169.34;;;-1.78;80.31
9525;BME280;15940;48.734;9.112;2023-01-30T02:33:56;97156.91;;;-1.92;79.34
9525;BME280;15940;48.734;9.112;2023-01-30T02:36:33;97152.22;;;-2.40;80.17
9525;BME280;15940;48.734;9.112;2023-01-30T02:39:10;97161.88;;;-2.89;80.84
9525;BME280;15940;48.734;9.112;2023-01-30T02:41:50;97181.47;;;-2.58;83.36
9525;BME280;15940;48.734;9.112;2023-01-30T02:44:26;97179.88;;;-2.37;83.04
9525;BME280;15940;48.734;9.112;2023-01-30T02:47:05;97166.09;;;-2.04;81.25
9525;BME280;15940;48.734;9.112;2023-01-30T02:49:37;97134.34;;;-2.25;79.49
9525;BME280;15940;48.734;9.112;2023-01-30T02:52:08;97121.28;;;-2.71;79.82
9525;BME280;15940;48.734;9.112;2023-01-30T02:54:36;97147.88;;;-2.96;82.13
9525;BME280;15940;48.734;9.112;2023-01-30T02:57:03;97167.13;;;-2.71;84.24
9525;BME280;15940;48.734;9.112;2023-01-30T02:59:33;97168.63;;;-2.63;83.38
9525;BME280;15940;48.734;9.112;2023-01-30T03:02:27;97149.56;;;-2.36;82.21
9525;BME280;15940;48.734;9.112;2023-01-30T03:05:27;97145.19;;;-2.85;81.64
9525;BME280;15940;48.734;9.112;2023-01-30T03:08:07;97143.31;;;-2.89;82.79
9525;BME280;15940;48.734;9.112;2023-01-30T03:10:42;97134.28;;;-3.09;83.47
9525;BME280;15940;48.734;9.112;2023-01-30T03:13:19;97117.66;;;-3.34;83.87
9525;BME280;15940;48.734;9.112;2023-01-30T03:15:50;97099.88;;;-3.52;84.53
9525;BME280;15940;48.734;9.112;2023-01-30T03:18:21;97107.84;;;-3.48;84.56
9525;BME280;15940;48.734;9.112;2023-01-30T03:20:48;97087.81;;;-3.60;85.57
9525;BME280;15940;48.734;9.112;2023-01-30T03:23:16;97084.38;;;-3.53;87.40
9525;BME280;15940;48.734;9.112;2023-01-30T03:25:45;97052.25;;;-3.62;85.33
9525;BME280;15940;48.734;9.112;2023-01-30T03:28:17;97043.56;;;-3.66;85.42
9525;BME280;15940;48.734;9.112;2023-01-30T03:30:46;97024.19;;;-3.35;87.23
9525;BME280;15940;48.734;9.112;2023-01-30T03:33:13;97022.69;;;-3.36;86.58
9525;BME280;15940;48.734;9.112;2023-01-30T03:35:41;97009.78;;;-3.12;85.47
9525;BME280;15940;48.734;9.112;2023-01-30T03:38:09;97001.06;;;-3.24;84.20
9525;BME280;15940;48.734;9.112;2023-01-30T03:40:36;97027.19;;;-3.19;83.39
9525;BME280;15940;48.734;9.112;2023-01-30T03:43:03;97035.88;;;-3.18;83.75
9525;BME280;15940;48.734;9.112;2023-01-30T03:45:30;97040.69;;;-2.88;85.46
9525;BME280;15940;48.734;9.112;2023-01-30T03:47:57;97046.38;;;-2.90;83.16
9525;BME280;15940;48.734;9.112;2023-01-30T03:50:24;97051.19;;;-2.67;83.69
9525;BME280;15940;48.734;9.112;2023-01-30T03:52:53;97033.84;;;-2.78;83.02
9525;BME280;15940;48.734;9.112;2023-01-30T03:55:20;97034.63;;;-2.89;82.95
9525;BME280;15940;48.734;9.112;2023-01-30T03:57:47;97041.09;;;-2.90;83.48
9525;BME280;15940;48.734;9.112;2023-01-30T04:00:15;97037.31;;;-2.92;83.00
9525;BME280;15940;48.734;9.112;2023-01-30T04:02:43;97026.22;;;-2.69;83.51
9525;BME280;15940;48.734;9.112;2023-01-30T04:05:09;97031.69;;;-2.32;82.58
9525;BME280;15940;48.734;9.112;2023-01-30T04:07:36;97031.94;;;-2.15;81.26
9525;BME280;15940;48.734;9.112;2023-01-30T04:10:06;97040.66;;;-2.15;81.05
9525;BME280;15940;48.734;9.112;2023-01-30T04:12:33;97040.63;;;-2.08;80.22
9525;BME280;15940;48.734;9.112;2023-01-30T04:15:00;97040.16;;;-1.99;79.78
9525;BME280;15940;48.734;9.112;2023-01-30T04:17:26;97042.81;;;-1.99;80.24
9525;BME280;15940;48.734;9.112;2023-01-30T04:19:53;97045.56;;;-2.13;79.67
9525;BME280;15940;48.734;9.112;2023-01-30T04:22:20;97031.38;;;-1.89;79.86
9525;BME280;15940;48.734;9.112;2023-01-30T04:24:47;97046.25;;;-1.98;78.68
9525;BME280;15940;48.734;9.112;2023-01-30T04:27:15;97048.09;;;-1.95;79.58
9525;BME280;15940;48.734;9.112;2023-01-30T04:29:42;97042.75;;;-1.92;78.78
9525;BME280;15940;48.734;9.112;2023-01-30T04:32:09;97032.44;;;-1.79;79.42
9525;BME280;15940;48.734;9.112;2023-01-30T04:34:36;97034.25;;;-1.73;78.34
9525;BME280;15940;48.734;9.112;2023-01-30T04:37:03;97018.84;;;-1.88;78.74
9525;BME280;15940;48.734;9.112;2023-01-30T04:39:30;97029.78;;;-1.79;79.13
9525;BME280;15940;48.734;9.112;2023-01-30T04:41:57;97034.00;;;-1.85;79.75
9525;BME280;15940;48.734;9.112;2023-01-30T04:44:25;97032.13;;;-1.88;79.59
9525;BME280;15940;48.734;9.112;2023-01-30T04:46:53;97040.91;;;-1.95;78.72
9525;BME280;15940;48.734;9.112;2023-01-30T04:49:19;97037.34;;;-1.78;79.26
9525;BME280;15940;48.734;9.112;2023-01-30T04:51:46;97037.28;;;-1.70;78.23
9525;BME280;15940;48.734;9.112;2023-01-30T04:54:13;97046.03;;;-1.74;78.26
9525;BME280;15940;48.734;9.112;2023-01-30T04:56:40;97037.78;;;-1.86;78.29
9525;BME280;15940;48.734;9.112;2023-01-30T04:59:07;97038.06;;;-1.74;79.05
9525;BME280;15940;48.734;9.112;2023-01-30T05:01:37;97032.34;;;-1.68;78.40
9525;BME280;15940;48.734;9.112;2023-01-30T05:04:05;97041.81;;;-1.67;78.88
9525;BME280;15940;48.734;9.112;2023-01-30T05:06:34;97035.75;;;-1.72;78.76
9525;BME280;15940;48.734;9.112;2023-01-30T05:09:02;97013.00;;;-1.69;78.55
9525;BME280;15940;48.734;9.112;2023-01-30T05:11:29;97019.38;;;-1.63;77.67
9525;BME280;15940;48.734;9.112;2023-01-30T05:13:56;97011.69;;;-1.54;77.33
9525;BME280;15940;48.734;9.112;2023-01-30T05:16:24;96999.03;;;-1.77;77.54
9525;BME280;15940;48.734;9.112;2023-01-30T05:18:53;97007.00;;;-1.80;78.36
9525;BME280;15940;48.734;9.112;2023-01-30T05:21:23;97005.53;;;-1.85;78.12
9525;BME280;15940;48.734;9.112;2023-01-30T05:23:52;96996.66;;;-1.67;79.05
9525;BME280;15940;48.734;9.112;2023-01-30T05:26:20;96990.59;;;-1.72;79.14
9525;BME280;15940;48.734;9.112;2023-01-30T05:28:51;96989.50;;;-1.74;77.77
9525;BME280;15940;48.734;9.112;2023-01-30T05:31:19;96975.53;;;-1.82;77.97
9525;BME280;15940;48.734;9.112;2023-01-30T05:33:48;96988.41;;;-1.80;78.26
9525;BME280;15940;48.734;9.112;2023-01-30T05:36:20;96984.00;;;-1.94;78.11
9525;BME280;15940;48.734;9.112;2023-01-30T05:38:47;96980.44;;;-1.80;79.20
9525;BME280;15940;48.734;9.112;2023-01-30T05:41:15;96977.53;;;-1.89;77.50
9525;BME280;15940;48.734;9.112;2023-01-30T05:43:42;96968.66;;;-1.76;77.40
9525;BME280;15940;48.734;9.112;2023-01-30T05:46:11;96974.84;;;-1.86;77.57
9525;BME280;15940;48.734;9.112;2023-01-30T05:48:38;96968.72;;;-1.79;78.15
9525;BME280;15940;48.734;9.112;2023-01-30T05:51:05;96971.28;;;-1.72;77.85
9525;BME280;15940;48.734;9.112;2023-01-30T05:53:34;96967.84;;;-1.69;77.30
9525;BME280;15940;48.734;9.112;2023-01-30T05:56:04;96972.81;;;-1.75;77.47
9525;BME280;15940;48.734;9.112;2023-01-30T05:58:32;96977.78;;;-1.77;77.19
9525;BME280;15940;48.734;9.112;2023-01-30T06:01:00;96981.88;;;-1.68;77.89
9525;BME280;15940;48.734;9.112;2023-01-30T06:03:27;96987.19;;;-1.72;77.33
9525;BME280;15940;48.734;9.112;2023-01-30T06:05:54;96989.84;;;-1.72;77.58
9525;BME280;15940;48.734;9.112;2023-01-30T06:08:21;96982.28;;;-1.70;78.57
9525;BME280;15940;48.734;9.112;2023-01-30T06:10:49;96973.50;;;-1.67;77.24
9525;BME280;15940;48.734;9.112;2023-01-30T06:13:17;96975.06;;;-1.69;77.15
9525;BME280;15940;48.734;9.112;2023-01-30T06:15:44;96979.31;;;-1.79;77.19
9525;BME280;15940;48.734;9.112;2023-01-30T06:18:11;96970.91;;;-1.74;77.81
9525;BME280;15940;48.734;9.112;2023-01-30T06:20:37;96966.69;;;-1.68;78.73
9525;BME280;15940;48.734;9.112;2023-01-30T06:23:04;96958.09;;;-1.79;77.83
9525;BME280;15940;48.734;9.112;2023-01-30T06:25:31;96967.09;;;-1.69;78.75
9525;BME280;15940;48.734;9.112;2023-01-30T06:27:59;96967.06;;;-1.32;76.66
9525;BME280;15940;48.734;9.112;2023-01-30T06:30:26;96957.38;;;-1.49;76.37
9525;BME280;15940;48.734;9.112;2023-01-30T06:32:53;96962.81;;;-1.60;78.07
9525;BME280;15940;48.734;9.112;2023-01-30T06:35:20;96960.00;;;-1.46;77.48
9525;BME280;15940;48.734;9.112;2023-01-30T06:37:47;96957.47;;;-1.56;77.48
9525;BME280;15940;48.734;9.112;2023-01-30T06:40:15;96954.13;;;-1.64;77.23
9525;BME280;15940;48.734;9.112;2023-01-30T06:42:45;96961.44;;;-1.37;77.54
9525;BME280;15940;48.734;9.112;2023-01-30T06:45:16;96957.31;;;-1.42;77.67
9525;BME280;15940;48.734;9.112;2023-01-30T06:47:45;96958.81;;;-1.41;77.75
9525;BME280;15940;48.734;9.112;2023-01-30T06:50:14;96960.03;;;-1.49;77.80
9525;BME280;15940;48.734;9.112;2023-01-30T06:52:42;96958.91;;;-1.48;77.63
9525;BME280;15940;48.734;9.112;2023-01-30T06:55:12;96944.81;;;-1.45;77.94
9525;BME280;15940;48.734;9.112;2023-01-30T06:57:40;96939.50;;;-1.45;78.46
9525;BME280;15940;48.734;9.112;2023-01-30T07:00:10;96940.22;;;-1.41;77.53
9525;BME280;15940;48.734;9.112;2023-01-30T07:02:39;96931.50;;;-1.41;78.92
9525;BME280;15940;48.734;9.112;2023-01-30T07:05:07;96935.69;;;-1.44;77.67
9525;BME280;15940;48.734;9.112;2023-01-30T07:07:35;96931.44;;;-1.38;77.80
9525;BME280;15940;48.734;9.112;2023-01-30T07:10:04;96938.13;;;-1.26;77.58
9525;BME280;15940;48.734;9.112;2023-01-30T07:12:31;96949.56;;;-1.29;78.18
9525;BME280;15940;48.734;9.112;2023-01-30T07:14:58;96947.59;;;-1.22;77.47
9525;BME280;15940;48.734;9.112;2023-01-30T07:17:25;96952.84;;;-1.18;76.81
9525;BME280;15940;48.734;9.112;2023-01-30T07:19:54;96960.06;;;-1.19;77.33
9525;BME280;15940;48.734;9.112;2023-01-30T07:22:21;96967.63;;;-1.13;77.24
9525;BME280;15940;48.734;9.112;2023-01-30T07:24:47;96982.69;;;-1.07;77.24
9525;BME280;15940;48.734;9.112;2023-01-30T07:27:14;96970.97;;;-1.09;77.18
9525;BME280;15940;48.734;9.112;2023-01-30T07:29:41;96972.38;;;-1.01;77.36
9525;BME280;15940;48.734;9.112;2023-01-30T07:32:14;96981.13;;;-1.01;78.10
9525;BME280;15940;48.734;9.112;2023-01-30T07:34:43;96975.72;;;-0.94;77.83
9525;BME280;15940;48.734;9.112;2023-01-30T07:37:11;96973.34;;;-0.88;77.74
9525;BME280;15940;48.734;9.112;2023-01-30T07:39:38;96968.84;;;-0.91;77.50
9525;BME280;15940;48.734;9.112;2023-01-30T07:42:05;96972.31;;;-0.94;77.48
9525;BME280;15940;48.734;9.112;2023-01-30T07:44:32;96985.97;;;-0.96;77.86
9525;BME280;15940;48.734;9.112;2023-01-30T07:46:59;96988.59;;;-0.92;78.19
9525;BME280;15940;48.734;9.112;2023-01-30T07:49:26;96994.63;;;-0.88;77.37
9525;BME280;15940;48.734;9.112;2023-01-30T07:51:53;97005.59;;;-0.86;77.29
9525;BME280;15940;48.734;9.112;2023-01-30T07:54:21;97001.75;;;-0.81;77.38
9525;BME280;15940;48.734;9.112;2023-01-30T07:56:48;97005.53;;;-0.79;77.40
9525;BME280;15940;48.734;9.112;2023-01-30T07:59:15;96992.69;;;-0.57;77.18
9525;BME280;15940;48.734;9.112;2023-01-30T08:01:42;96997.66;;;-0.59;76.47
9525;BME280;15940;48.734;9.112;2023-01-30T08:04:09;96984.00;;;-0.61;75.80
9525;BME280;15940;48.734;9.112;2023-01-30T08:06:36;96965.97;;;-0.50;76.60
9525;BME280;15940;48.734;9.112;2023-01-30T08:09:04;96964.78;;;-0.45;75.69
9525;BME280;15940;48.734;9.112;2023-01-30T08:11:33;96967.47;;;-0.49;76.22
9525;BME280;15940;48.734;9.112;2023-01-30T08:14:01;96986.22;;;-0.56;76.40
9525;BME280;15940;48.734;9.112;2023-01-30T08:16:28;96992.75;;;-0.61;78.50
9525;BME280;15940;48.734;9.112;2023-01-30T08:18:57;97009.38;;;-0.53;77.51
9525;BME280;15940;48.734;9.112;2023-01-30T08:21:24;97011.63;;;-0.51;77.77
9525;BME280;15940;48.734;9.112;2023-01-30T08:23:51;97002.47;;;-0.50;78.13
9525;BME280;15940;48.734;9.112;2023-01-30T08:26:18;97003.22;;;-0.50;77.89
9525;BME280;15940;48.734;9.112;2023-01-30T08:28:46;96993.09;;;-0.59;77.58
9525;BME280;15940;48.734;9.112;2023-01-30T08:31:15;96994.22;;;-0.56;78.12
9525;BME280;15940;48.734;9.112;2023-01-30T08:33:42;96978.13;;;-0.49;77.38
9525;BME280;15940;48.734;9.112;2023-01-30T08:36:10;96986.47;;;-0.47;78.83
9525;BME280;15940;48.734;9.112;2023-01-30T08:38:36;96970.69;;;-0.34;77.04
9525;BME280;15940;48.734;9.112;2023-01-30T08:41:05;96957.00;;;-0.33;76.87
9525;BME280;15940;48.734;9.112;2023-01-30T08:43:33;96963.13;;;-0.36;76.95
9525;BME280;15940;48.734;9.112;2023-01-30T08:46:01;96974.34;;;-0.24;77.64
9525;BME280;15940;48.734;9.112;2023-01-30T08:48:29;96980.44;;;-0.01;77.59
9525;BME280;15940;48.734;9.112;2023-01-30T08:50:56;96963.25;;;0.04;76.15
9525;BME280;15940;48.734;9.112;2023-01-30T08:53:23;96950.97;;;0.10;75.75
9525;BME280;15940;48.734;9.112;2023-01-30T08:55:50;96961.97;;;0.12;75.93
9525;BME280;15940;48.734;9.112;2023-01-30T08:58:18;96964.00;;;0.05;75.83
9525;BME280;15940;48.734;9.112;2023-01-30T09:00:45;96964.06;;;0.01;76.76
9525;BME280;15940;48.734;9.112;2023-01-30T09:03:14;96951.50;;;0.02;77.15
9525;BME280;15940;48.734;9.112;2023-01-30T09:05:42;96945.66;;;0.10;76.61
9525;BME280;15940;48.734;9.112;2023-01-30T09:08:09;96935.13;;;0.03;76.98
9525;BME280;15940;48.734;9.112;2023-01-30T09:10:36;96923.03;;;0.18;76.64
9525;BME280;15940;48.734;9.112;2023-01-30T09:13:03;96911.69;;;0.14;76.38
9525;BME280;15940;48.734;9.112;2023-01-30T09:15:30;96917.59;;;0.25;76.62
9525;BME280;15940;48.734;9.112;2023-01-30T09:17:57;96934.75;;;0.44;75.08
9525;BME280;15940;48.734;9.112;2023-01-30T09:20:26;96913.63;;;0.73;75.22
9525;BME280;15940;48.734;9.112;2023-01-30T09:22:53;96922.09;;;1.24;74.29
9525;BME280;15940;48.734;9.112;2023-01-30T09:25:20;96920.25;;;1.54;72.30
9525;BME280;15940;48.734;9.112;2023-01-30T09:27:48;96917.09;;;1.42;72.36
9525;BME280;15940;48.734;9.112;2023-01-30T09:30:16;96917.34;;;1.48;73.19
9525;BME280;15940;48.734;9.112;2023-01-30T09:32:43;96916.69;;;1.44;73.37
9525;BME280;15940;48.734;9.112;2023-01-30T09:35:10;96900.84;;;1.53;73.04
9525;BME280;15940;48.734;9.112;2023-01-30T09:37:46;96899.31;;;1.36;73.76
9525;BME280;15940;48.734;9.112;2023-01-30T09:40:14;96903.81;;;1.39;73.70
9525;BME280;15940;48.734;9.112;2023-01-30T09:43:11;96918.41;;;1.34;74.06
9525;BME280;15940;48.734;9.112;2023-01-30T09:45:48;96919.75;;;1.26;74.65
9525;BME280;15940;48.734;9.112;2023-01-30T09:48:23;96920.97;;;1.22;74.34
9525;BME280;15940;48.734;9.112;2023-01-30T09:51:27;96904.03;;;1.12;74.85
9525;BME280;15940;48.734;9.112;2023-01-30T09:54:17;96891.38;;;1.16;74.77
9525;BME280;15940;48.734;9.112;2023-01-30T09:56:55;96888.13;;;1.08;75.16
9525;BME280;15940;48.734;9.112;2023-01-30T09:59:31;96894.28;;;1.22;74.69
9525;BME280;15940;48.734;9.112;2023-01-30T10:02:25;96884.53;;;1.31;74.80
9525;BME280;15940;48.734;9.112;2023-01-30T10:04:53;96864.38;;;1.47;74.65
9525;BME280;15940;48.734;9.112;2023-01-30T10:07:27;96895.66;;;1.62;74.25
9525;BME280;15940;48.734;9.112;2023-01-30T10:10:04;96872.94;;;1.70;74.36
9525;BME280;15940;48.734;9.112;2023-01-30T10:12:44;96879.69;;;1.75;74.29
9525;BME280;15940;48.734;9.112;2023-01-30T10:15:30;96861.09;;;1.71;73.99
9525;BME280;15940;48.734;9.112;2023-01-30T10:18:31;96841.47;;;1.78;74.48
9525;BME280;15940;48.734;9.112;2023-01-30T10:21:13;96857.88;;;1.93;73.96
9525;BME280;15940;48.734;9.112;2023-01-30T10:24:04;96853.03;;;2.17;73.64
9525;BME280;15940;48.734;9.112;2023-01-30T10:26:35;96847.84;;;2.26;73.57
9525;BME280;15940;48.734;9.112;2023-01-30T10:29:06;96827.88;;;2.31;73.50
9525;BME280;15940;48.734;9.112;2023-01-30T10:31:43;96824.34;;;2.34;73.54
9525;BME280;15940;48.734;9.112;2023-01-30T10:34:13;96831.19;;;2.35;73.53
9525;BME280;15940;48.734;9.112;2023-01-30T10:36:51;96832.03;;;2.32;73.75
9525;BME280;15940;48.734;9.112;2023-01-30T10:39:27;96831.28;;;2.31;74.11
9525;BME280;15940;48.734;9.112;2023-01-30T10:42:06;96839.06;;;2.25;74.63
9525;BME280;15940;48.734;9.112;2023-01-30T10:44:35;96840.81;;;2.32;74.48
9525;BME280;15940;48.734;9.112;2023-01-30T10:47:27;96833.09;;;2.21;75.22
9525;BME280;15940;48.734;9.112;2023-01-30T10:50:10;96838.00;;;2.23;75.50
9525;BME280;15940;48.734;9.112;2023-01-30T10:52:48;96834.25;;;2.20;75.89
9525;BME280;15940;48.734;9.112;2023-01-30T10:55:29;96835.66;;;2.25;75.93
9525;BME280;15940;48.734;9.112;2023-01-30T10:58:11;96826.56;;;2.22;76.11
9525;BME280;15940;48.734;9.112;2023-01-30T11:00:43;96843.16;;;2.30;76.56
9525;BME280;15940;48.734;9.112;2023-01-30T11:03:23;96843.38;;;2.36;76.32
9525;BME280;15940;48.734;9.112;2023-01-30T11:05:56;96844.22;;;2.33;76.43
9525;BME280;15940;48.734;9.112;2023-01-30T11:08:27;96845.50;;;2.28;76.75
9525;BME280;15940;48.734;9.112;2023-01-30T11:10:55;96844.03;;;2.40;76.35
9525;BME280;15940;48.734;9.112;2023-01-30T11:13:28;96849.25;;;2.31;76.84
9525;BME280;15940;48.734;9.112;2023-01-30T11:15:57;96843.78;;;2.21;77.28
9525;BME280;15940;48.734;9.112;2023-01-30T11:18:25;96852.22;;;2.20;77.39
9525;BME280;15940;48.734;9.112;2023-01-30T11:21:06;96845.28;;;2.22;76.93
9525;BME280;15940;48.734;9.112;2023-01-30T11:23:40;96847.91;;;2.10;77.49
9525;BME280;15940;48.734;9.112;2023-01-30T11:26:19;96843.06;;;2.05;77.73
9525;BME280;15940;48.734;9.112;2023-01-30T11:28:48;96856.22;;;1.99;78.27
9525;BME280;15940;48.734;9.112;2023-01-30T11:31:21;96851.88;;;1.89;79.13
9525;BME280;15940;48.734;9.112;2023-01-30T11:34:00;96842.22;;;1.79;79.44
9525;BME280;15940;48.734;9.112;2023-01-30T11:36:29;96830.13;;;1.74;79.29
9525;BME280;15940;48.734;9.112;2023-01-30T11:39:00;96839.31;;;1.73;79.66
9525;BME280;15940;48.734;9.112;2023-01-30T11:41:29;96838.47;;;1.76;79.45
9525;BME280;15940;48.734;9.112;2023-01-30T11:44:03;96846.06;;;1.78;80.05
9525;BME280;15940;48.734;9.112;2023-01-30T11:46:34;96850.91;;;1.83;79.51
9525;BME280;15940;48.734;9.112;2023-01-30T11:49:05;96860.69;;;1.73;80.53
9525;BME280;15940;48.734;9.112;2023-01-30T11:51:38;96865.75;;;1.67;81.05
9525;BME280;15940;48.734;9.112;2023-01-30T11:54:11;96870.34;;;1.51;82.17
9525;BME280;15940;48.734;9.112;2023-01-30T11:56:45;96877.47;;;1.41;82.76
9525;BME280;15940;48.734;9.112;2023-01-30T11:59:23;96850.97;;;1.34;82.98
9525;BME280;15940;48.734;9.112;2023-01-30T12:01:53;96847.94;;;1.32;83.44
9525;BME280;15940;48.734;9.112;2023-01-30T12:04:27;96848.03;;;1.28;83.96
9525;BME280;15940;48.734;9.112;2023-01-30T12:07:05;96837.44;;;1.25;84.53
9525;BME280;15940;48.734;9.112;2023-01-30T12:09:35;96843.53;;;1.25;85.01
9525;BME280;15940;48.734;9.112;2023-01-30T12:12:22;96848.69;;;1.32;84.99
9525;BME280;15940;48.734;9.112;2023-01-30T12:15:02;96835.00;;;1.30;84.95
9525;BME280;15940;48.734;9.112;2023-01-30T12:17:43;96830.53;;;1.27;85.17
9525;BME280;15940;48.734;9.112;2023-01-30T12:20:18;96833.03;;;1.34;84.81
9525;BME280;15940;48.734;9.112;2023-01-30T12:23:01;96829.84;;;1.39;84.80
9525;BME280;15940;48.734;9.112;2023-01-30T12:25:34;96837.09;;;1.23;85.19
9525;BME280;15940;48.734;9.112;2023-01-30T12:28:12;96838.34;;;1.18;85.36
9525;BME280;15940;48.734;9.112;2023-01-30T12:30:48;96830.59;;;1.07;85.93
9525;BME280;15940;48.734;9.112;2023-01-30T12:33:17;96820.91;;;1.13;85.86
9525;BME280;15940;48.734;9.112;2023-01-30T12:35:56;96830.44;;;1.14;86.07
9525;BME280;15940;48.734;9.112;2023-01-30T12:38:40;96831.19;;;1.15;86.68
9525;BME280;15940;48.734;9.112;2023-01-30T12:41:28;96831.75;;;1.23;85.81
9525;BME280;15940;48.734;9.112;2023-01-30T12:44:21;96832.28;;;1.18;86.00
9525;BME280;15940;48.734;9.112;2023-01-30T12:47:06;96831.19;;;1.15;86.72
9525;BME280;15940;48.734;9.112;2023-01-30T12:49:49;96837.19;;;1.19;86.43
9525;BME280;15940;48.734;9.112;2023-01-30T12:52:49;96856.38;;;1.14;86.25
9525;BME280;15940;48.734;9.112;2023-01-30T12:55:32;96849.94;;;1.11;86.61
9525;BME280;15940;48.734;9.112;2023-01-30T12:58:08;96861.78;;;1.10;86.89
9525;BME280;15940;48.734;9.112;2023-01-30T13:00:55;96880.13;;;1.08;86.76
9525;BME280;15940;48.734;9.112;2023-01-30T13:03:34;96874.94;;;1.01;87.23
9525;BME280;15940;48.734;9.112;2023-01-30T13:06:18;96878.53;;;1.11;87.28
9525;BME280;15940;48.734;9.112;2023-01-30T13:09:02;96877.78;;;1.10;86.99
9525;BME280;15940;48.734;9.112;2023-01-30T13:11:44;96873.88;;;1.15;87.26
9525;BME280;15940;48.734;9.112;2023-01-30T13:14:24;96872.03;;;1.12;87.18
9525;BME280;15940;48.734;9.112;2023-01-30T13:17:09;96860.53;;;1.15;87.36
9525;BME280;15940;48.734;9.112;2023-01-30T13:19:45;96864.78;;;1.12;87.73
9525;BME280;15940;48.734;9.112;2023-01-30T13:22:19;96870.19;;;1.09;88.18
9525;BME280;15940;48.734;9.112;2023-01-30T13:24:58;96871.28;;;1.11;87.99
9525;BME280;15940;48.734;9.112;2023-01-30T13:27:28;96868.00;;;1.04;87.71
9525;BME280;15940;48.734;9.112;2023-01-30T13:30:02;96882.94;;;1.01;88.36
9525;BME280;15940;48.734;9.112;2023-01-30T13:32:36;96876.59;;;0.95;88.85
9525;BME280;15940;48.734;9.112;2023-01-30T13:35:14;96877.25;;;0.99;89.40
9525;BME280;15940;48.734;9.112;2023-01-30T13:37:46;96883.81;;;1.14;89.25
9525;BME280;15940;48.734;9.112;2023-01-30T13:40:17;96883.38;;;1.16;88.76